Карточка аэропорта UACC

Внимание!
Информация на этой странице в стадии наполнения.
Если вы не увидели какой-то информации, или заметили неточность - пожалуйста сообщите нам!
Спасибо!
Команда RU-STAFF
Название аэропортаАстана
Название аэропорта (англ.)Astana
Превышение1165 ft. (355.1 m.)
Координаты51°1.3319999999999', 71°28.014'
Высота перехода10000ft
Эшелон переходаFL120, QNH<733:FL130
Коды ответчика0601-0627, 7201-7217
Зона ОрВДАстана РПИ (UACN)
Данные METARUACC 140100Z 36004MPS 9999 SCT036 19/13 Q1014 NOSIG RMK QFE729/0972
Проноз погоды (TAF)UACC 131703Z 1318/1418 35004MPS 9999 SCT040 BKN100 TX27/1409Z TN14/1324Z TEMPO 1318/1323 04004MPS TEMPO 1323/1402 04005MPS -SHRA BKN030CB BECMG 1402/1404 03006MPS TEMPO 1402/1414 34010MPS -SHRA BKN030CB PROB40 TEMPO 1402/1414 TS BKN030CB
NOTAMshow/hide NOTAM
AWOS   TABLE

Информация о ВПП

ВПП Длина ВПП (м.) Покрытие Курс ВПП Частота ILS
043500Асфальтобетон35109.5
223500Асфальтобетон215111.7

Диспетчерские позиции

Позывной Наименование органа УВД Частота
UACC_APPАстана Подход124.6
UACC_R_APPАстана Круг120.7
UACC_TWRАстана Вышка118.7
UACC_GNDАстана Руление119.6



Спутниковое изображение